sensor_id;sensor_type;location;lat;lon;timestamp;temperature;humidity
17152;DHT22;8691;50.828;4.700;2023-03-01T00:01:24;-2.00;99.90
17152;DHT22;8691;50.828;4.700;2023-03-01T00:03:50;-2.00;99.90
17152;DHT22;8691;50.828;4.700;2023-03-01T00:06:17;-2.00;99.90
17152;DHT22;8691;50.828;4.700;2023-03-01T00:08:44;-2.00;99.90
17152;DHT22;8691;50.828;4.700;2023-03-01T00:13:48;-2.10;99.90
17152;DHT22;8691;50.828;4.700;2023-03-01T00:16:21;-2.10;99.90
17152;DHT22;8691;50.828;4.700;2023-03-01T00:18:47;-2.10;99.90
17152;DHT22;8691;50.828;4.700;2023-03-01T00:21:14;-2.10;99.90
17152;DHT22;8691;50.828;4.700;2023-03-01T00:23:41;-2.10;99.90
17152;DHT22;8691;50.828;4.700;2023-03-01T00:26:09;-2.20;99.90
17152;DHT22;8691;50.828;4.700;2023-03-01T00:28:35;-2.20;99.90
17152;DHT22;8691;50.828;4.700;2023-03-01T00:31:12;-2.20;99.90
17152;DHT22;8691;50.828;4.700;2023-03-01T00:33:38;-2.30;99.90
17152;DHT22;8691;50.828;4.700;2023-03-01T00:36:06;-2.30;99.90
17152;DHT22;8691;50.828;4.700;2023-03-01T00:38:41;-2.40;99.90
17152;DHT22;8691;50.828;4.700;2023-03-01T00:41:07;-2.40;99.90
17152;DHT22;8691;50.828;4.700;2023-03-01T00:43:34;-2.40;99.90
17152;DHT22;8691;50.828;4.700;2023-03-01T00:46:01;-2.40;99.90
17152;DHT22;8691;50.828;4.700;2023-03-01T00:48:28;-2.50;99.90
17152;DHT22;8691;50.828;4.700;2023-03-01T00:50:55;-2.50;99.90
17152;DHT22;8691;50.828;4.700;2023-03-01T00:53:22;-2.40;99.90
17152;DHT22;8691;50.828;4.700;2023-03-01T00:55:49;-2.40;99.90
17152;DHT22;8691;50.828;4.700;2023-03-01T00:58:15;-2.50;99.90
17152;DHT22;8691;50.828;4.700;2023-03-01T01:00:42;-2.50;99.90
17152;DHT22;8691;50.828;4.700;2023-03-01T01:03:09;-2.50;99.90
17152;DHT22;8691;50.828;4.700;2023-03-01T01:05:36;-2.50;99.90
17152;DHT22;8691;50.828;4.700;2023-03-01T01:08:04;-2.40;99.90
17152;DHT22;8691;50.828;4.700;2023-03-01T01:10:32;-2.50;99.90
17152;DHT22;8691;50.828;4.700;2023-03-01T01:12:58;-2.40;99.90
17152;DHT22;8691;50.828;4.700;2023-03-01T01:15:26;-2.30;99.90
17152;DHT22;8691;50.828;4.700;2023-03-01T01:17:53;-2.40;99.90
17152;DHT22;8691;50.828;4.700;2023-03-01T01:20:20;-2.40;99.90
17152;DHT22;8691;50.828;4.700;2023-03-01T01:22:47;-2.40;99.90
17152;DHT22;8691;50.828;4.700;2023-03-01T01:25:13;-2.40;99.90
17152;DHT22;8691;50.828;4.700;2023-03-01T01:27:41;-2.50;99.90
17152;DHT22;8691;50.828;4.700;2023-03-01T01:30:08;-2.50;99.90
17152;DHT22;8691;50.828;4.700;2023-03-01T01:32:36;-2.60;99.90
17152;DHT22;8691;50.828;4.700;2023-03-01T01:35:03;-2.60;99.90
17152;DHT22;8691;50.828;4.700;2023-03-01T01:37:30;-2.60;99.90
17152;DHT22;8691;50.828;4.700;2023-03-01T01:40:02;-2.60;99.90
17152;DHT22;8691;50.828;4.700;2023-03-01T01:42:29;-2.70;99.90
17152;DHT22;8691;50.828;4.700;2023-03-01T01:45:30;-2.70;99.90
17152;DHT22;8691;50.828;4.700;2023-03-01T01:47:55;-2.70;99.90
17152;DHT22;8691;50.828;4.700;2023-03-01T01:50:21;-2.80;99.90
17152;DHT22;8691;50.828;4.700;2023-03-01T01:52:48;-2.80;99.90
17152;DHT22;8691;50.828;4.700;2023-03-01T01:55:16;-2.80;99.90
17152;DHT22;8691;50.828;4.700;2023-03-01T01:57:45;-2.80;99.90
17152;DHT22;8691;50.828;4.700;2023-03-01T02:00:16;-2.70;99.90
17152;DHT22;8691;50.828;4.700;2023-03-01T02:02:39;-2.60;99.90
17152;DHT22;8691;50.828;4.700;2023-03-01T02:05:11;-2.60;99.90
17152;DHT22;8691;50.828;4.700;2023-03-01T02:07:36;-2.70;99.90
17152;DHT22;8691;50.828;4.700;2023-03-01T02:10:03;-2.80;99.90
17152;DHT22;8691;50.828;4.700;2023-03-01T02:12:30;-2.80;99.90
17152;DHT22;8691;50.828;4.700;2023-03-01T02:14:58;-2.90;99.90
17152;DHT22;8691;50.828;4.700;2023-03-01T02:17:24;-3.00;99.90
17152;DHT22;8691;50.828;4.700;2023-03-01T02:20:19;-3.00;99.90
17152;DHT22;8691;50.828;4.700;2023-03-01T02:22:43;-3.10;99.90
17152;DHT22;8691;50.828;4.700;2023-03-01T02:30:19;-3.20;99.90
17152;DHT22;8691;50.828;4.700;2023-03-01T02:32:45;-3.20;99.90
17152;DHT22;8691;50.828;4.700;2023-03-01T02:35:13;-3.20;99.90
17152;DHT22;8691;50.828;4.700;2023-03-01T02:37:40;-3.20;99.90
17152;DHT22;8691;50.828;4.700;2023-03-01T02:40:09;-3.20;99.90
17152;DHT22;8691;50.828;4.700;2023-03-01T02:42:36;-3.20;99.90
17152;DHT22;8691;50.828;4.700;2023-03-01T02:45:02;-3.20;99.90
17152;DHT22;8691;50.828;4.700;2023-03-01T02:47:30;-3.20;99.90
17152;DHT22;8691;50.828;4.700;2023-03-01T02:49:56;-3.30;99.90
17152;DHT22;8691;50.828;4.700;2023-03-01T02:55:04;-3.40;99.90
17152;DHT22;8691;50.828;4.700;2023-03-01T02:57:30;-3.40;99.90
17152;DHT22;8691;50.828;4.700;2023-03-01T02:59:57;-3.40;99.90
17152;DHT22;8691;50.828;4.700;2023-03-01T03:02:24;-3.40;99.90
17152;DHT22;8691;50.828;4.700;2023-03-01T03:05:06;-3.40;99.90
17152;DHT22;8691;50.828;4.700;2023-03-01T03:07:34;-3.40;99.90
17152;DHT22;8691;50.828;4.700;2023-03-01T03:10:00;-3.40;99.90
17152;DHT22;8691;50.828;4.700;2023-03-01T03:12:27;-3.40;99.90
17152;DHT22;8691;50.828;4.700;2023-03-01T03:14:54;-3.40;99.90
17152;DHT22;8691;50.828;4.700;2023-03-01T03:17:21;-3.40;99.90
17152;DHT22;8691;50.828;4.700;2023-03-01T03:19:48;-3.40;99.90
17152;DHT22;8691;50.828;4.700;2023-03-01T03:22:15;-3.40;99.90
17152;DHT22;8691;50.828;4.700;2023-03-01T03:24:43;-3.50;99.90
17152;DHT22;8691;50.828;4.700;2023-03-01T03:27:10;-3.50;99.90
17152;DHT22;8691;50.828;4.700;2023-03-01T03:29:37;-3.60;99.90
17152;DHT22;8691;50.828;4.700;2023-03-01T03:32:04;-3.60;99.90
17152;DHT22;8691;50.828;4.700;2023-03-01T03:34:31;-3.70;99.90
17152;DHT22;8691;50.828;4.700;2023-03-01T03:36:58;-3.70;99.90
17152;DHT22;8691;50.828;4.700;2023-03-01T03:39:25;-3.60;99.90
17152;DHT22;8691;50.828;4.700;2023-03-01T03:41:52;-3.50;99.90
17152;DHT22;8691;50.828;4.700;2023-03-01T03:44:20;-3.20;99.90
17152;DHT22;8691;50.828;4.700;2023-03-01T03:46:46;-3.20;99.90
17152;DHT22;8691;50.828;4.700;2023-03-01T03:49:13;-3.10;99.90
17152;DHT22;8691;50.828;4.700;2023-03-01T03:51:40;-3.10;99.90
17152;DHT22;8691;50.828;4.700;2023-03-01T03:54:07;-3.00;99.90
17152;DHT22;8691;50.828;4.700;2023-03-01T03:56:34;-3.10;99.90
17152;DHT22;8691;50.828;4.700;2023-03-01T03:59:01;-3.10;99.90
17152;DHT22;8691;50.828;4.700;2023-03-01T04:01:28;-3.10;99.90
17152;DHT22;8691;50.828;4.700;2023-03-01T04:03:55;-3.10;99.90
17152;DHT22;8691;50.828;4.700;2023-03-01T04:06:22;-3.10;99.90
17152;DHT22;8691;50.828;4.700;2023-03-01T04:08:49;-3.00;99.90
17152;DHT22;8691;50.828;4.700;2023-03-01T04:11:16;-2.90;99.90
17152;DHT22;8691;50.828;4.700;2023-03-01T04:13:56;-2.90;99.90
17152;DHT22;8691;50.828;4.700;2023-03-01T04:16:22;-2.90;99.90
17152;DHT22;8691;50.828;4.700;2023-03-01T04:18:49;-2.90;99.90
17152;DHT22;8691;50.828;4.700;2023-03-01T04:21:16;-3.00;99.90
17152;DHT22;8691;50.828;4.700;2023-03-01T04:23:43;-3.00;99.90
17152;DHT22;8691;50.828;4.700;2023-03-01T04:26:10;-3.10;99.90
17152;DHT22;8691;50.828;4.700;2023-03-01T04:28:38;-3.10;99.90
17152;DHT22;8691;50.828;4.700;2023-03-01T04:31:05;-3.10;99.90
17152;DHT22;8691;50.828;4.700;2023-03-01T04:33:30;-3.10;99.90
17152;DHT22;8691;50.828;4.700;2023-03-01T04:35:57;-3.00;99.90
17152;DHT22;8691;50.828;4.700;2023-03-01T04:38:25;-3.00;99.90
17152;DHT22;8691;50.828;4.700;2023-03-01T04:40:51;-3.00;99.90
17152;DHT22;8691;50.828;4.700;2023-03-01T04:43:18;-3.00;99.90
17152;DHT22;8691;50.828;4.700;2023-03-01T04:45:46;-3.10;99.90
17152;DHT22;8691;50.828;4.700;2023-03-01T04:48:14;-3.10;99.90
17152;DHT22;8691;50.828;4.700;2023-03-01T04:50:41;-3.10;99.90
17152;DHT22;8691;50.828;4.700;2023-03-01T04:53:07;-3.10;99.90
17152;DHT22;8691;50.828;4.700;2023-03-01T04:55:34;-3.10;99.90
17152;DHT22;8691;50.828;4.700;2023-03-01T04:58:01;-3.10;99.90
17152;DHT22;8691;50.828;4.700;2023-03-01T05:00:29;-3.10;99.90
17152;DHT22;8691;50.828;4.700;2023-03-01T05:02:56;-3.10;99.90
17152;DHT22;8691;50.828;4.700;2023-03-01T05:05:32;-3.10;99.90
17152;DHT22;8691;50.828;4.700;2023-03-01T05:08:02;-3.20;99.90
17152;DHT22;8691;50.828;4.700;2023-03-01T05:10:28;-3.20;99.90
17152;DHT22;8691;50.828;4.700;2023-03-01T05:12:55;-3.20;99.90
17152;DHT22;8691;50.828;4.700;2023-03-01T05:15:21;-3.20;99.90
17152;DHT22;8691;50.828;4.700;2023-03-01T05:17:48;-3.30;99.90
17152;DHT22;8691;50.828;4.700;2023-03-01T05:20:15;-3.30;99.90
17152;DHT22;8691;50.828;4.700;2023-03-01T05:22:42;-3.40;99.90
17152;DHT22;8691;50.828;4.700;2023-03-01T05:25:09;-3.40;99.90
17152;DHT22;8691;50.828;4.700;2023-03-01T05:27:36;-3.40;99.90
17152;DHT22;8691;50.828;4.700;2023-03-01T05:30:03;-3.40;99.90
17152;DHT22;8691;50.828;4.700;2023-03-01T05:32:30;-3.30;99.90
17152;DHT22;8691;50.828;4.700;2023-03-01T05:34:57;-3.30;99.90
17152;DHT22;8691;50.828;4.700;2023-03-01T05:37:24;-3.30;99.90
17152;DHT22;8691;50.828;4.700;2023-03-01T05:39:50;-3.30;99.90
17152;DHT22;8691;50.828;4.700;2023-03-01T05:42:18;-3.20;99.90
17152;DHT22;8691;50.828;4.700;2023-03-01T05:44:45;-3.10;99.90
17152;DHT22;8691;50.828;4.700;2023-03-01T05:47:12;-3.10;99.90
17152;DHT22;8691;50.828;4.700;2023-03-01T05:49:39;-3.10;99.90
17152;DHT22;8691;50.828;4.700;2023-03-01T05:52:06;-3.10;99.90
17152;DHT22;8691;50.828;4.700;2023-03-01T05:54:33;-3.10;99.90
17152;DHT22;8691;50.828;4.700;2023-03-01T05:57:00;-3.10;99.90
17152;DHT22;8691;50.828;4.700;2023-03-01T05:59:27;-3.10;99.90
17152;DHT22;8691;50.828;4.700;2023-03-01T06:01:54;-3.10;99.90
17152;DHT22;8691;50.828;4.700;2023-03-01T06:04:22;-3.10;99.90
17152;DHT22;8691;50.828;4.700;2023-03-01T06:06:49;-3.20;99.90
17152;DHT22;8691;50.828;4.700;2023-03-01T06:09:16;-3.20;99.90
17152;DHT22;8691;50.828;4.700;2023-03-01T06:11:43;-3.20;99.90
17152;DHT22;8691;50.828;4.700;2023-03-01T06:14:11;-3.40;99.90
17152;DHT22;8691;50.828;4.700;2023-03-01T06:30:39;-3.30;99.90
17152;DHT22;8691;50.828;4.700;2023-03-01T06:33:06;-3.20;99.90
17152;DHT22;8691;50.828;4.700;2023-03-01T06:35:33;-3.20;99.90
17152;DHT22;8691;50.828;4.700;2023-03-01T06:38:00;-3.20;99.90
17152;DHT22;8691;50.828;4.700;2023-03-01T06:40:26;-3.20;99.90
17152;DHT22;8691;50.828;4.700;2023-03-01T06:42:53;-3.10;99.90
17152;DHT22;8691;50.828;4.700;2023-03-01T06:45:20;-3.10;99.90
17152;DHT22;8691;50.828;4.700;2023-03-01T06:47:46;-3.10;99.90
17152;DHT22;8691;50.828;4.700;2023-03-01T06:50:13;-3.00;99.90
17152;DHT22;8691;50.828;4.700;2023-03-01T06:52:39;-3.00;99.90
17152;DHT22;8691;50.828;4.700;2023-03-01T06:55:06;-3.00;99.90
17152;DHT22;8691;50.828;4.700;2023-03-01T06:57:33;-2.90;99.90
17152;DHT22;8691;50.828;4.700;2023-03-01T06:59:59;-2.90;99.90
17152;DHT22;8691;50.828;4.700;2023-03-01T07:02:26;-2.80;99.90
17152;DHT22;8691;50.828;4.700;2023-03-01T07:04:53;-2.70;99.90
17152;DHT22;8691;50.828;4.700;2023-03-01T07:07:21;-2.70;99.90
17152;DHT22;8691;50.828;4.700;2023-03-01T07:09:48;-2.70;99.90
17152;DHT22;8691;50.828;4.700;2023-03-01T07:12:14;-2.60;99.90
17152;DHT22;8691;50.828;4.700;2023-03-01T07:14:43;-2.50;99.90
17152;DHT22;8691;50.828;4.700;2023-03-01T07:17:09;-2.40;99.90
17152;DHT22;8691;50.828;4.700;2023-03-01T07:19:36;-2.40;99.90
17152;DHT22;8691;50.828;4.700;2023-03-01T07:22:03;-2.40;99.90
17152;DHT22;8691;50.828;4.700;2023-03-01T07:24:29;-2.20;99.90
17152;DHT22;8691;50.828;4.700;2023-03-01T07:26:56;-2.20;99.90
17152;DHT22;8691;50.828;4.700;2023-03-01T07:29:22;-2.10;99.90
17152;DHT22;8691;50.828;4.700;2023-03-01T07:31:49;-2.00;99.90
17152;DHT22;8691;50.828;4.700;2023-03-01T07:34:15;-1.90;99.90
17152;DHT22;8691;50.828;4.700;2023-03-01T07:36:42;-1.80;99.90
17152;DHT22;8691;50.828;4.700;2023-03-01T07:39:09;-1.70;99.90
17152;DHT22;8691;50.828;4.700;2023-03-01T07:41:35;-1.60;99.90
17152;DHT22;8691;50.828;4.700;2023-03-01T07:44:02;-1.50;99.90
17152;DHT22;8691;50.828;4.700;2023-03-01T07:46:29;-1.30;99.90
17152;DHT22;8691;50.828;4.700;2023-03-01T07:48:56;-1.00;99.90
17152;DHT22;8691;50.828;4.700;2023-03-01T07:51:23;-1.00;99.90
17152;DHT22;8691;50.828;4.700;2023-03-01T07:53:49;-0.90;99.90
17152;DHT22;8691;50.828;4.700;2023-03-01T07:56:17;0.30;99.90
17152;DHT22;8691;50.828;4.700;2023-03-01T07:58:44;0.30;99.90
17152;DHT22;8691;50.828;4.700;2023-03-01T08:01:11;1.90;99.90
17152;DHT22;8691;50.828;4.700;2023-03-01T08:03:37;2.70;99.90
17152;DHT22;8691;50.828;4.700;2023-03-01T08:06:04;3.90;99.90
17152;DHT22;8691;50.828;4.700;2023-03-01T08:08:30;4.40;99.90
17152;DHT22;8691;50.828;4.700;2023-03-01T08:10:57;4.90;99.90
17152;DHT22;8691;50.828;4.700;2023-03-01T08:13:23;5.90;99.90
17152;DHT22;8691;50.828;4.700;2023-03-01T08:15:51;6.90;99.90
17152;DHT22;8691;50.828;4.700;2023-03-01T08:18:17;6.90;99.90
17152;DHT22;8691;50.828;4.700;2023-03-01T08:20:45;7.60;97.60
17152;DHT22;8691;50.828;4.700;2023-03-01T08:23:11;7.60;97.60
17152;DHT22;8691;50.828;4.700;2023-03-01T08:25:39;8.50;94.70
17152;DHT22;8691;50.828;4.700;2023-03-01T08:28:05;8.50;94.70
17152;DHT22;8691;50.828;4.700;2023-03-01T08:30:32;9.10;93.10
17152;DHT22;8691;50.828;4.700;2023-03-01T08:32:58;8.60;94.60
17152;DHT22;8691;50.828;4.700;2023-03-01T08:35:25;9.00;93.60
17152;DHT22;8691;50.828;4.700;2023-03-01T08:37:52;9.10;93.10
17152;DHT22;8691;50.828;4.700;2023-03-01T08:40:18;9.40;91.80
17152;DHT22;8691;50.828;4.700;2023-03-01T08:42:45;9.70;91.70
17152;DHT22;8691;50.828;4.700;2023-03-01T08:45:12;9.40;90.70
17152;DHT22;8691;50.828;4.700;2023-03-01T08:47:39;9.40;90.70
17152;DHT22;8691;50.828;4.700;2023-03-01T08:50:07;9.20;92.60
17152;DHT22;8691;50.828;4.700;2023-03-01T08:52:33;9.20;92.40
17152;DHT22;8691;50.828;4.700;2023-03-01T08:55:01;9.80;90.40
17152;DHT22;8691;50.828;4.700;2023-03-01T08:57:27;9.80;90.40
17152;DHT22;8691;50.828;4.700;2023-03-01T08:59:55;9.30;92.20
17152;DHT22;8691;50.828;4.700;2023-03-01T09:02:21;9.30;92.10
17152;DHT22;8691;50.828;4.700;2023-03-01T09:04:49;10.10;91.00
17152;DHT22;8691;50.828;4.700;2023-03-01T09:07:15;10.10;91.00
17152;DHT22;8691;50.828;4.700;2023-03-01T09:09:43;10.30;90.10
17152;DHT22;8691;50.828;4.700;2023-03-01T09:12:09;10.20;90.10
17152;DHT22;8691;50.828;4.700;2023-03-01T09:14:36;10.20;90.70
17152;DHT22;8691;50.828;4.700;2023-03-01T09:17:02;10.60;88.30
17152;DHT22;8691;50.828;4.700;2023-03-01T09:19:29;11.00;85.00
17152;DHT22;8691;50.828;4.700;2023-03-01T09:21:56;10.60;86.00
17152;DHT22;8691;50.828;4.700;2023-03-01T09:24:23;10.20;87.60
17152;DHT22;8691;50.828;4.700;2023-03-01T09:26:49;11.40;84.80
17152;DHT22;8691;50.828;4.700;2023-03-01T09:29:16;11.00;87.80
17152;DHT22;8691;50.828;4.700;2023-03-01T09:31:42;11.50;83.60
17152;DHT22;8691;50.828;4.700;2023-03-01T09:34:09;11.60;82.80
17152;DHT22;8691;50.828;4.700;2023-03-01T09:36:36;11.10;84.40
17152;DHT22;8691;50.828;4.700;2023-03-01T09:39:03;11.10;84.40
17152;DHT22;8691;50.828;4.700;2023-03-01T09:41:43;11.80;82.20
17152;DHT22;8691;50.828;4.700;2023-03-01T09:46:55;11.80;80.00
17152;DHT22;8691;50.828;4.700;2023-03-01T09:49:23;12.70;76.40
17152;DHT22;8691;50.828;4.700;2023-03-01T09:52:12;12.70;76.40
17152;DHT22;8691;50.828;4.700;2023-03-01T09:54:36;11.60;78.20
17152;DHT22;8691;50.828;4.700;2023-03-01T09:57:15;11.00;82.00
17152;DHT22;8691;50.828;4.700;2023-03-01T09:59:55;11.20;81.30
17152;DHT22;8691;50.828;4.700;2023-03-01T10:02:49;11.30;79.80
17152;DHT22;8691;50.828;4.700;2023-03-01T10:04:59;11.30;79.80
17152;DHT22;8691;50.828;4.700;2023-03-01T10:09:55;11.80;78.10
17152;DHT22;8691;50.828;4.700;2023-03-01T10:12:33;12.00;77.30
17152;DHT22;8691;50.828;4.700;2023-03-01T10:15:11;11.30;79.40
17152;DHT22;8691;50.828;4.700;2023-03-01T10:17:43;10.80;81.20
17152;DHT22;8691;50.828;4.700;2023-03-01T10:22:40;11.70;76.30
17152;DHT22;8691;50.828;4.700;2023-03-01T10:25:08;11.00;79.90
17152;DHT22;8691;50.828;4.700;2023-03-01T10:33:04;11.60;76.90
17152;DHT22;8691;50.828;4.700;2023-03-01T10:35:32;12.00;76.40
17152;DHT22;8691;50.828;4.700;2023-03-01T10:38:07;11.70;75.80
17152;DHT22;8691;50.828;4.700;2023-03-01T10:40:35;11.10;79.90
17152;DHT22;8691;50.828;4.700;2023-03-01T10:43:02;11.10;79.10
17152;DHT22;8691;50.828;4.700;2023-03-01T10:48:19;11.50;76.60
17152;DHT22;8691;50.828;4.700;2023-03-01T10:50:46;11.60;76.80
17152;DHT22;8691;50.828;4.700;2023-03-01T10:55:58;11.50;76.10
17152;DHT22;8691;50.828;4.700;2023-03-01T10:58:23;10.90;78.60
17152;DHT22;8691;50.828;4.700;2023-03-01T11:01:34;10.60;77.50
17152;DHT22;8691;50.828;4.700;2023-03-01T11:06:19;8.50;81.90
17152;DHT22;8691;50.828;4.700;2023-03-01T11:11:29;7.20;88.50
17152;DHT22;8691;50.828;4.700;2023-03-01T11:21:59;6.60;91.40
17152;DHT22;8691;50.828;4.700;2023-03-01T11:24:27;6.60;90.00
17152;DHT22;8691;50.828;4.700;2023-03-01T11:26:54;6.60;90.50
17152;DHT22;8691;50.828;4.700;2023-03-01T11:29:30;6.60;90.50
17152;DHT22;8691;50.828;4.700;2023-03-01T11:31:54;6.70;91.10
17152;DHT22;8691;50.828;4.700;2023-03-01T11:34:23;6.70;91.00
17152;DHT22;8691;50.828;4.700;2023-03-01T11:36:58;6.70;91.40
17152;DHT22;8691;50.828;4.700;2023-03-01T11:39:39;6.70;91.40
17152;DHT22;8691;50.828;4.700;2023-03-01T11:42:12;6.50;90.70
17152;DHT22;8691;50.828;4.700;2023-03-01T11:44:37;6.60;90.70
17152;DHT22;8691;50.828;4.700;2023-03-01T12:00:07;7.00;90.70
17152;DHT22;8691;50.828;4.700;2023-03-01T12:05:24;7.00;91.10
17152;DHT22;8691;50.828;4.700;2023-03-01T12:10:36;6.80;90.70
17152;DHT22;8691;50.828;4.700;2023-03-01T12:20:56;6.90;90.70
17152;DHT22;8691;50.828;4.700;2023-03-01T12:23:37;6.80;90.80
17152;DHT22;8691;50.828;4.700;2023-03-01T12:26:10;6.80;90.90
17152;DHT22;8691;50.828;4.700;2023-03-01T12:28:43;6.90;90.80
17152;DHT22;8691;50.828;4.700;2023-03-01T12:34:14;6.70;91.30
17152;DHT22;8691;50.828;4.700;2023-03-01T12:42:09;6.90;91.20
17152;DHT22;8691;50.828;4.700;2023-03-01T12:47:10;7.30;90.50
17152;DHT22;8691;50.828;4.700;2023-03-01T12:49:38;7.30;90.50
17152;DHT22;8691;50.828;4.700;2023-03-01T12:52:16;7.30;90.30
17152;DHT22;8691;50.828;4.700;2023-03-01T12:54:40;7.30;90.20
17152;DHT22;8691;50.828;4.700;2023-03-01T13:05:20;7.20;89.30
17152;DHT22;8691;50.828;4.700;2023-03-01T13:07:55;7.10;89.50
17152;DHT22;8691;50.828;4.700;2023-03-01T13:10:39;7.00;90.80
17152;DHT22;8691;50.828;4.700;2023-03-01T13:13:12;7.30;90.50
17152;DHT22;8691;50.828;4.700;2023-03-01T13:15:29;7.30;90.50
17152;DHT22;8691;50.828;4.700;2023-03-01T13:17:55;7.20;90.90
17152;DHT22;8691;50.828;4.700;2023-03-01T13:20:31;7.20;90.20
17152;DHT22;8691;50.828;4.700;2023-03-01T13:23:06;7.30;90.00
17152;DHT22;8691;50.828;4.700;2023-03-01T13:25:29;7.30;90.20
17152;DHT22;8691;50.828;4.700;2023-03-01T13:28:32;7.40;90.10
17152;DHT22;8691;50.828;4.700;2023-03-01T13:35:52;7.30;89.70
17152;DHT22;8691;50.828;4.700;2023-03-01T13:38:46;7.30;90.00
17152;DHT22;8691;50.828;4.700;2023-03-01T13:41:16;7.20;90.40
17152;DHT22;8691;50.828;4.700;2023-03-01T13:43:42;7.30;90.40
17152;DHT22;8691;50.828;4.700;2023-03-01T13:46:14;7.40;90.20
17152;DHT22;8691;50.828;4.700;2023-03-01T13:48:38;7.40;90.30
17152;DHT22;8691;50.828;4.700;2023-03-01T13:51:06;7.50;90.70
17152;DHT22;8691;50.828;4.700;2023-03-01T13:53:35;7.50;90.80
17152;DHT22;8691;50.828;4.700;2023-03-01T13:56:02;7.40;90.80
17152;DHT22;8691;50.828;4.700;2023-03-01T13:58:29;7.60;90.30
17152;DHT22;8691;50.828;4.700;2023-03-01T14:03:23;7.60;90.60
17152;DHT22;8691;50.828;4.700;2023-03-01T14:06:03;7.60;90.10
17152;DHT22;8691;50.828;4.700;2023-03-01T14:08:29;7.50;90.70
17152;DHT22;8691;50.828;4.700;2023-03-01T14:13:53;7.60;90.10
17152;DHT22;8691;50.828;4.700;2023-03-01T14:16:02;7.60;88.30
17152;DHT22;8691;50.828;4.700;2023-03-01T14:20:52;7.60;88.40
17152;DHT22;8691;50.828;4.700;2023-03-01T14:23:23;7.40;88.70
17152;DHT22;8691;50.828;4.700;2023-03-01T14:25:49;7.40;87.90
17152;DHT22;8691;50.828;4.700;2023-03-01T14:28:26;7.30;89.10
17152;DHT22;8691;50.828;4.700;2023-03-01T14:30:51;7.50;89.00
17152;DHT22;8691;50.828;4.700;2023-03-01T14:33:22;7.50;88.40
17152;DHT22;8691;50.828;4.700;2023-03-01T14:36:03;7.40;88.30
17152;DHT22;8691;50.828;4.700;2023-03-01T14:38:33;7.40;88.50
17152;DHT22;8691;50.828;4.700;2023-03-01T14:40:56;7.20;89.20
17152;DHT22;8691;50.828;4.700;2023-03-01T14:43:22;7.30;89.50
17152;DHT22;8691;50.828;4.700;2023-03-01T14:45:49;7.30;89.10
17152;DHT22;8691;50.828;4.700;2023-03-01T14:48:15;7.40;88.90
17152;DHT22;8691;50.828;4.700;2023-03-01T14:50:42;7.30;90.00
17152;DHT22;8691;50.828;4.700;2023-03-01T14:53:15;7.50;89.50
17152;DHT22;8691;50.828;4.700;2023-03-01T14:55:42;7.40;90.10
17152;DHT22;8691;50.828;4.700;2023-03-01T14:58:05;7.50;89.30
17152;DHT22;8691;50.828;4.700;2023-03-01T15:00:31;7.50;89.70
17152;DHT22;8691;50.828;4.700;2023-03-01T15:03:00;7.40;89.30
17152;DHT22;8691;50.828;4.700;2023-03-01T15:05:31;7.40;89.80
17152;DHT22;8691;50.828;4.700;2023-03-01T15:07:57;7.50;89.40
17152;DHT22;8691;50.828;4.700;2023-03-01T15:10:25;7.50;88.30
17152;DHT22;8691;50.828;4.700;2023-03-01T15:12:50;7.50;89.80
17152;DHT22;8691;50.828;4.700;2023-03-01T15:17:55;7.30;88.60
17152;DHT22;8691;50.828;4.700;2023-03-01T15:20:22;7.30;90.30
17152;DHT22;8691;50.828;4.700;2023-03-01T15:22:48;7.30;89.00
17152;DHT22;8691;50.828;4.700;2023-03-01T15:25:24;7.40;88.10
17152;DHT22;8691;50.828;4.700;2023-03-01T15:27:47;7.40;87.90
17152;DHT22;8691;50.828;4.700;2023-03-01T15:30:24;7.40;87.90
17152;DHT22;8691;50.828;4.700;2023-03-01T15:32:41;7.50;88.60
17152;DHT22;8691;50.828;4.700;2023-03-01T15:35:37;7.40;89.70
17152;DHT22;8691;50.828;4.700;2023-03-01T15:37:59;7.40;89.30
17152;DHT22;8691;50.828;4.700;2023-03-01T15:40:29;7.20;90.30
17152;DHT22;8691;50.828;4.700;2023-03-01T15:42:58;7.30;90.50
17152;DHT22;8691;50.828;4.700;2023-03-01T15:45:25;7.30;90.40
17152;DHT22;8691;50.828;4.700;2023-03-01T15:47:52;7.40;90.20
17152;DHT22;8691;50.828;4.700;2023-03-01T15:52:53;7.40;89.30
17152;DHT22;8691;50.828;4.700;2023-03-01T15:55:20;7.30;89.20
17152;DHT22;8691;50.828;4.700;2023-03-01T15:57:46;7.30;89.80
17152;DHT22;8691;50.828;4.700;2023-03-01T16:00:13;7.20;90.00
17152;DHT22;8691;50.828;4.700;2023-03-01T16:02:39;7.10;90.10
17152;DHT22;8691;50.828;4.700;2023-03-01T16:05:08;6.80;90.20
17152;DHT22;8691;50.828;4.700;2023-03-01T16:07:32;6.90;90.60
17152;DHT22;8691;50.828;4.700;2023-03-01T16:09:59;6.80;90.70
17152;DHT22;8691;50.828;4.700;2023-03-01T16:12:26;6.70;91.10
17152;DHT22;8691;50.828;4.700;2023-03-01T16:14:53;6.90;91.60
17152;DHT22;8691;50.828;4.700;2023-03-01T16:17:20;6.90;91.70
17152;DHT22;8691;50.828;4.700;2023-03-01T16:19:46;6.70;92.00
17152;DHT22;8691;50.828;4.700;2023-03-01T16:22:13;7.00;91.80
17152;DHT22;8691;50.828;4.700;2023-03-01T16:24:39;6.80;91.90
17152;DHT22;8691;50.828;4.700;2023-03-01T16:27:06;6.70;91.90
17152;DHT22;8691;50.828;4.700;2023-03-01T16:29:33;6.70;91.60
17152;DHT22;8691;50.828;4.700;2023-03-01T16:32:02;6.70;91.30
17152;DHT22;8691;50.828;4.700;2023-03-01T16:34:29;6.60;91.60
17152;DHT22;8691;50.828;4.700;2023-03-01T16:36:55;6.50;91.70
17152;DHT22;8691;50.828;4.700;2023-03-01T16:39:22;6.40;92.20
17152;DHT22;8691;50.828;4.700;2023-03-01T16:41:49;6.40;92.20
17152;DHT22;8691;50.828;4.700;2023-03-01T16:44:15;6.20;92.50
17152;DHT22;8691;50.828;4.700;2023-03-01T16:46:42;6.00;92.70
17152;DHT22;8691;50.828;4.700;2023-03-01T16:49:09;5.90;93.10
17152;DHT22;8691;50.828;4.700;2023-03-01T16:51:38;5.80;93.40
17152;DHT22;8691;50.828;4.700;2023-03-01T16:54:03;6.00;93.20
17152;DHT22;8691;50.828;4.700;2023-03-01T16:56:30;6.10;93.40
17152;DHT22;8691;50.828;4.700;2023-03-01T16:59:00;6.00;93.60
17152;DHT22;8691;50.828;4.700;2023-03-01T17:01:27;6.00;93.40
17152;DHT22;8691;50.828;4.700;2023-03-01T17:03:53;5.90;93.40
17152;DHT22;8691;50.828;4.700;2023-03-01T17:06:20;5.90;93.40
17152;DHT22;8691;50.828;4.700;2023-03-01T17:08:47;5.70;93.80
17152;DHT22;8691;50.828;4.700;2023-03-01T17:11:17;5.60;94.00
17152;DHT22;8691;50.828;4.700;2023-03-01T17:13:43;5.50;94.40
17152;DHT22;8691;50.828;4.700;2023-03-01T17:16:12;5.40;94.80
17152;DHT22;8691;50.828;4.700;2023-03-01T17:18:37;5.40;95.10
17152;DHT22;8691;50.828;4.700;2023-03-01T17:21:04;5.40;95.00
17152;DHT22;8691;50.828;4.700;2023-03-01T17:23:31;5.30;94.90
17152;DHT22;8691;50.828;4.700;2023-03-01T17:25:58;5.30;95.20
17152;DHT22;8691;50.828;4.700;2023-03-01T17:28:26;5.00;95.40
17152;DHT22;8691;50.828;4.700;2023-03-01T17:30:51;4.80;96.10
17152;DHT22;8691;50.828;4.700;2023-03-01T17:33:18;4.70;96.50
17152;DHT22;8691;50.828;4.700;2023-03-01T17:35:45;4.60;96.70
17152;DHT22;8691;50.828;4.700;2023-03-01T17:38:13;4.50;97.00
17152;DHT22;8691;50.828;4.700;2023-03-01T17:40:38;4.30;97.40
17152;DHT22;8691;50.828;4.700;2023-03-01T17:43:05;4.20;97.70
17152;DHT22;8691;50.828;4.700;2023-03-01T17:45:31;4.10;98.10
17152;DHT22;8691;50.828;4.700;2023-03-01T17:47:58;4.00;98.40
17152;DHT22;8691;50.828;4.700;2023-03-01T17:50:25;3.90;98.60
17152;DHT22;8691;50.828;4.700;2023-03-01T17:52:52;3.90;98.80
17152;DHT22;8691;50.828;4.700;2023-03-01T17:55:18;3.80;99.20
17152;DHT22;8691;50.828;4.700;2023-03-01T17:57:45;3.80;99.60